Time;durP1;ratioP1;P1;durP2;ratioP2;P2;SDS_P1;SDS_P2;PMS_P1;PMS_P2;Temp;Humidity;BMP_temperature;BMP_pressure;BME280_temperature;BME280_humidity;BME280_pressure;Samples;Min_cycle;Max_cycle;Signal;HPM_P1;HPM_P2
2023/04/09 00:01:08;;;;;;;14.43;10.57;;;;;;;7.96;63.62;95163.09;5025008;28;20060;-81
2023/04/09 00:03:34;;;;;;;15.88;10.27;;;;;;;7.95;63.49;95155.31;5023107;28;20021;-80
2023/04/09 00:06:00;;;;;;;13.48;10.25;;;;;;;7.99;63.51;95165.00;5023407;28;20064;-81
2023/04/09 00:08:25;;;;;;;13.98;10.38;;;;;;;7.98;63.49;95165.44;5025132;28;20061;-81
2023/04/09 00:10:52;;;;;;;15.15;10.15;;;;;;;7.65;64.47;95165.13;5024858;28;20431;-82
2023/04/09 00:13:18;;;;;;;16.55;10.35;;;;;;;7.80;64.11;95173.91;5007353;28;20095;-81
2023/04/09 00:15:44;;;;;;;11.73;9.57;;;;;;;7.89;63.88;95176.88;5023053;28;20037;-81
2023/04/09 00:18:10;;;;;;;14.02;10.70;;;;;;;7.92;63.99;95178.03;5024925;28;20046;-81
2023/04/09 00:20:35;;;;;;;14.50;11.13;;;;;;;7.99;63.25;95175.19;5024547;28;20030;-81
2023/04/09 00:23:00;;;;;;;12.45;10.10;;;;;;;8.07;63.34;95175.84;5024725;28;20034;-80
2023/04/09 00:25:27;;;;;;;15.23;10.48;;;;;;;8.11;63.19;95176.59;5023407;28;20029;-81
2023/04/09 00:27:53;;;;;;;13.20;10.23;;;;;;;8.16;63.16;95179.63;5026833;28;20037;-81
2023/04/09 00:30:19;;;;;;;14.68;10.82;;;;;;;8.19;63.22;95175.25;5034124;28;20043;-82
2023/04/09 00:32:44;;;;;;;13.98;10.00;;;;;;;8.25;63.38;95170.88;5023334;28;20022;-82
2023/04/09 00:35:10;;;;;;;13.70;10.35;;;;;;;8.30;63.08;95184.09;5023598;28;20092;-81
2023/04/09 00:37:35;;;;;;;13.88;10.10;;;;;;;8.33;63.33;95180.53;5023201;28;20026;-82
2023/04/09 00:40:01;;;;;;;14.27;10.63;;;;;;;8.37;63.33;95180.50;5024965;28;20120;-81
2023/04/09 00:42:26;;;;;;;12.00;10.20;;;;;;;8.39;63.42;95184.38;5024523;28;20021;-81
2023/04/09 00:44:52;;;;;;;13.45;10.30;;;;;;;8.42;63.27;95182.75;5023003;28;20032;-81
2023/04/09 00:47:17;;;;;;;14.38;10.32;;;;;;;8.44;63.36;95177.66;5024552;28;20079;-81
2023/04/09 00:49:43;;;;;;;13.57;10.23;;;;;;;8.44;63.19;95178.44;5024366;28;20098;-81
2023/04/09 00:52:09;;;;;;;11.90;10.20;;;;;;;8.48;63.20;95175.59;5024859;28;20664;-81
2023/04/09 00:54:34;;;;;;;13.10;10.20;;;;;;;8.49;63.01;95175.22;5023089;28;20044;-81
2023/04/09 00:57:00;;;;;;;12.93;10.60;;;;;;;8.49;62.73;95172.47;5022944;28;20461;-81
2023/04/09 00:59:26;;;;;;;14.38;10.90;;;;;;;8.50;62.55;95170.50;5024438;28;20440;-81
2023/04/09 01:01:51;;;;;;;11.32;9.40;;;;;;;8.46;62.65;95175.25;5022708;28;20033;-81
2023/04/09 01:04:17;;;;;;;13.25;9.85;;;;;;;8.43;62.53;95174.13;5024141;28;20029;-80
2023/04/09 01:07:05;;;;;;;12.75;9.80;;;;;;;8.44;62.32;95169.44;5022831;28;20025;-81
2023/04/09 01:09:35;;;;;;;10.40;8.85;;;;;;;8.43;62.30;95178.81;5023313;28;20419;-81
2023/04/09 01:12:10;;;;;;;11.90;8.95;;;;;;;8.41;62.49;95171.03;5024952;28;20404;-81
2023/04/09 01:14:48;;;;;;;11.50;9.27;;;;;;;8.42;62.50;95175.31;5026799;28;20549;-81
2023/04/09 01:17:45;;;;;;;12.43;9.07;;;;;;;8.29;62.63;95179.03;5026567;28;20033;-82
2023/04/09 01:20:18;;;;;;;10.85;8.70;;;;;;;8.29;62.51;95179.81;5018185;28;20038;-81
2023/04/09 01:23:11;;;;;;;12.93;9.10;;;;;;;8.32;62.69;95183.69;5010271;28;20049;-81
2023/04/09 01:25:39;;;;;;;12.85;8.93;;;;;;;8.30;62.54;95184.09;5037613;28;20034;-82
2023/04/09 01:28:39;;;;;;;12.40;9.02;;;;;;;7.75;63.59;95184.53;5026429;28;20030;-81
2023/04/09 01:31:14;;;;;;;11.93;9.25;;;;;;;7.56;64.93;95185.97;5027496;28;20120;-81
2023/04/09 01:33:43;;;;;;;12.38;9.38;;;;;;;7.68;64.52;95180.72;5026339;28;20021;-81
2023/04/09 01:36:09;;;;;;;11.70;8.77;;;;;;;7.72;64.22;95183.41;5027621;28;20038;-81
2023/04/09 01:38:36;;;;;;;12.07;9.48;;;;;;;7.67;64.25;95181.88;5026118;28;20032;-80
2023/04/09 01:41:02;;;;;;;14.20;10.25;;;;;;;7.79;64.10;95177.81;5025759;28;20033;-80
2023/04/09 01:43:29;;;;;;;12.88;10.15;;;;;;;7.83;64.00;95177.78;5027624;28;20040;-80
2023/04/09 01:45:55;;;;;;;13.98;9.88;;;;;;;7.94;63.72;95178.41;5025959;28;20025;-80
2023/04/09 01:48:21;;;;;;;13.30;9.98;;;;;;;7.94;63.82;95183.88;5026451;28;20028;-80
2023/04/09 01:50:47;;;;;;;13.45;9.80;;;;;;;7.96;63.39;95181.47;5009433;28;20033;-81
2023/04/09 01:53:12;;;;;;;11.48;9.43;;;;;;;8.04;63.11;95182.94;5026086;28;20345;-81
2023/04/09 01:55:38;;;;;;;12.48;9.63;;;;;;;7.78;63.97;95189.19;5009221;28;20033;-81
2023/04/09 01:58:03;;;;;;;12.93;10.07;;;;;;;7.80;64.06;95184.88;5026723;28;20044;-82
2023/04/09 02:00:38;;;;;;;13.00;9.77;;;;;;;7.71;64.71;95188.09;5027271;28;20022;-82
2023/04/09 02:03:17;;;;;;;11.40;8.98;;;;;;;7.83;64.04;95172.31;5025248;28;20117;-82
2023/04/09 02:06:09;;;;;;;12.98;9.25;;;;;;;7.53;64.71;95173.88;5025913;28;20031;-81
2023/04/09 02:08:34;;;;;;;12.40;9.05;;;;;;;7.47;64.83;95177.50;5025513;28;20104;-81
2023/04/09 02:11:03;;;;;;;11.20;9.63;;;;;;;7.41;64.68;95175.22;5025425;28;20045;-81
2023/04/09 02:13:30;;;;;;;11.35;9.07;;;;;;;7.26;65.00;95176.56;5025444;28;20417;-81
2023/04/09 02:15:55;;;;;;;11.60;9.65;;;;;;;7.33;64.85;95181.94;5025234;28;20017;-80
2023/04/09 02:18:28;;;;;;;11.25;8.90;;;;;;;7.52;64.41;95171.56;5011380;28;20428;-80
2023/04/09 02:20:55;;;;;;;10.25;8.63;;;;;;;7.67;64.33;95175.66;5035399;28;20112;-81
2023/04/09 02:23:20;;;;;;;13.05;9.50;;;;;;;7.62;64.43;95173.38;5025375;28;20022;-80
2023/04/09 02:25:46;;;;;;;12.18;9.30;;;;;;;7.69;64.29;95173.28;5026663;28;20412;-81
2023/04/09 02:28:11;;;;;;;11.18;8.80;;;;;;;7.81;63.82;95180.16;5024974;28;20103;-81
2023/04/09 02:30:37;;;;;;;11.63;8.35;;;;;;;7.88;63.72;95169.88;5025378;28;20029;-80
2023/04/09 02:33:02;;;;;;;12.27;9.40;;;;;;;7.94;63.75;95181.91;5026201;28;20360;-80
2023/04/09 02:35:27;;;;;;;11.20;9.65;;;;;;;8.01;63.41;95180.25;5025129;28;20109;-79
2023/04/09 02:37:53;;;;;;;13.07;9.52;;;;;;;8.04;63.46;95177.47;5025035;28;20021;-80
2023/04/09 02:40:18;;;;;;;13.80;10.35;;;;;;;8.10;63.43;95180.50;5026428;28;20131;-79
2023/04/09 02:42:44;;;;;;;12.85;10.52;;;;;;;8.14;63.34;95176.53;5025024;28;20033;-80
2023/04/09 02:45:09;;;;;;;13.27;9.52;;;;;;;8.19;63.73;95184.25;5024987;28;20100;-80
2023/04/09 02:47:35;;;;;;;14.55;10.95;;;;;;;8.21;63.99;95173.69;5008313;28;20488;-80
2023/04/09 02:50:00;;;;;;;14.40;10.73;;;;;;;8.24;64.26;95172.84;5025929;28;20116;-82
2023/04/09 02:52:26;;;;;;;15.30;11.00;;;;;;;8.25;63.77;95171.63;5026037;28;20017;-81
2023/04/09 02:54:51;;;;;;;15.40;11.70;;;;;;;8.27;64.02;95165.00;5024783;28;20060;-81
2023/04/09 02:57:17;;;;;;;17.52;12.02;;;;;;;8.28;63.92;95164.56;5025675;28;21150;-81
2023/04/09 02:59:43;;;;;;;16.58;13.45;;;;;;;8.27;63.97;95167.72;5024925;28;20506;-81
2023/04/09 03:02:09;;;;;;;17.95;12.82;;;;;;;8.25;63.65;95171.63;5024490;28;20517;-81
2023/04/09 03:04:34;;;;;;;16.33;13.10;;;;;;;8.24;63.68;95174.81;5025638;28;20045;-81
2023/04/09 03:07:00;;;;;;;18.75;13.90;;;;;;;8.22;63.37;95175.22;5025932;28;20036;-81
2023/04/09 03:09:25;;;;;;;20.40;14.25;;;;;;;8.22;63.34;95172.47;5025638;28;20025;-80
2023/04/09 03:11:51;;;;;;;20.52;14.70;;;;;;;8.17;63.55;95172.19;5025615;28;20028;-81
2023/04/09 03:14:16;;;;;;;20.73;14.77;;;;;;;8.14;63.35;95173.00;5032304;28;20033;-81
2023/04/09 03:16:41;;;;;;;20.35;14.82;;;;;;;8.10;63.50;95167.59;5032401;28;20033;-82
2023/04/09 03:19:07;;;;;;;25.40;14.63;;;;;;;8.08;63.51;95169.19;5025492;28;20033;-80
2023/04/09 03:21:32;;;;;;;21.27;15.93;;;;;;;8.06;63.75;95169.59;5026031;28;20411;-80
2023/04/09 03:23:58;;;;;;;20.50;15.10;;;;;;;8.03;63.74;95162.25;5025868;28;20083;-80
2023/04/09 03:26:23;;;;;;;25.23;15.95;;;;;;;8.01;63.96;95170.06;5025039;28;20076;-80
2023/04/09 03:28:48;;;;;;;23.77;16.92;;;;;;;7.99;64.00;95158.78;5025557;28;20026;-82
2023/04/09 03:31:14;;;;;;;23.08;17.10;;;;;;;7.98;64.14;95168.94;5025112;28;20025;-81
2023/04/09 03:33:39;;;;;;;25.98;17.52;;;;;;;7.93;64.30;95157.69;5024473;28;20017;-80
2023/04/09 03:36:05;;;;;;;25.65;17.65;;;;;;;7.89;64.26;95163.22;5025335;28;20495;-80
2023/04/09 03:38:30;;;;;;;22.92;17.08;;;;;;;7.89;64.27;95168.69;5025068;28;20030;-80
2023/04/09 03:40:56;;;;;;;26.42;18.45;;;;;;;7.87;64.25;95165.59;5025414;28;20533;-81
2023/04/09 03:43:21;;;;;;;24.08;18.05;;;;;;;7.84;64.21;95168.38;5025463;28;20116;-80
2023/04/09 03:45:46;;;;;;;26.77;18.15;;;;;;;7.81;64.61;95169.97;5025430;28;20025;-80
2023/04/09 03:48:12;;;;;;;25.05;17.95;;;;;;;7.77;64.40;95163.00;5023534;28;20028;-80
2023/04/09 03:50:39;;;;;;;21.58;16.05;;;;;;;7.74;64.41;95167.31;5025096;28;20108;-80
2023/04/09 03:53:05;;;;;;;20.70;15.88;;;;;;;7.71;64.52;95174.41;5023651;28;20036;-81
2023/04/09 03:55:30;;;;;;;25.58;17.15;;;;;;;7.65;64.39;95167.84;5024827;28;20030;-80
2023/04/09 03:57:55;;;;;;;24.50;16.63;;;;;;;7.64;64.40;95179.22;5024762;28;20069;-80
2023/04/09 04:00:21;;;;;;;22.65;16.77;;;;;;;7.63;64.60;95178.44;5024860;28;20464;-81
2023/04/09 04:02:46;;;;;;;22.30;16.60;;;;;;;7.61;64.74;95178.06;5024911;28;20066;-82
2023/04/09 04:05:12;;;;;;;25.08;17.42;;;;;;;7.63;64.58;95183.16;5024873;28;20522;-82
2023/04/09 04:07:37;;;;;;;25.52;18.38;;;;;;;7.61;64.47;95185.50;5008431;28;20029;-82
2023/04/09 04:10:05;;;;;;;24.05;18.70;;;;;;;7.61;64.61;95175.31;5033108;28;20026;-82
2023/04/09 04:12:30;;;;;;;25.05;18.20;;;;;;;7.60;64.73;95194.91;5032181;28;20040;-82
2023/04/09 04:14:56;;;;;;;25.65;18.63;;;;;;;7.60;64.80;95187.47;5023625;28;20033;-82
2023/04/09 04:17:21;;;;;;;26.90;19.75;;;;;;;7.59;64.80;95177.72;5024780;28;20044;-81
2023/04/09 04:19:46;;;;;;;25.63;19.42;;;;;;;7.58;64.82;95176.16;5024950;28;20030;-81
2023/04/09 04:22:12;;;;;;;26.00;18.83;;;;;;;7.55;64.86;95173.47;5025086;28;20097;-82
2023/04/09 04:24:37;;;;;;;28.35;20.73;;;;;;;7.57;64.71;95185.56;5024697;28;20089;-82
2023/04/09 04:27:03;;;;;;;29.15;20.67;;;;;;;7.56;64.47;95185.97;5024686;28;20021;-82
2023/04/09 04:29:28;;;;;;;28.38;19.55;;;;;;;7.55;64.51;95181.66;5023121;28;20514;-82
2023/04/09 04:31:54;;;;;;;27.02;18.15;;;;;;;7.52;64.38;95193.44;5024418;28;20032;-81
2023/04/09 04:34:19;;;;;;;27.27;17.40;;;;;;;7.54;64.22;95186.38;5024688;28;20029;-81
2023/04/09 04:36:44;;;;;;;24.75;17.88;;;;;;;7.54;64.29;95186.38;5024423;28;20435;-82
2023/04/09 04:39:10;;;;;;;24.00;15.95;;;;;;;7.56;64.13;95194.16;5024572;28;20024;-82
2023/04/09 04:41:35;;;;;;;23.67;15.98;;;;;;;7.58;64.16;95180.88;5024665;28;20029;-82
2023/04/09 04:44:01;;;;;;;21.13;15.40;;;;;;;7.59;64.32;95182.41;5024607;28;20025;-82
2023/04/09 04:46:29;;;;;;;19.38;14.40;;;;;;;7.59;64.01;95182.41;5027646;28;20404;-81
2023/04/09 04:48:54;;;;;;;19.65;14.10;;;;;;;7.64;64.09;95188.19;5028498;28;20076;-81
2023/04/09 04:51:19;;;;;;;19.55;14.38;;;;;;;7.65;64.02;95183.50;5028432;28;20151;-81
2023/04/09 04:53:45;;;;;;;18.52;13.18;;;;;;;7.69;64.06;95184.22;5027891;28;20504;-81
2023/04/09 04:56:14;;;;;;;19.20;14.70;;;;;;;7.77;64.13;95193.13;5028317;28;20021;-81
2023/04/09 04:58:40;;;;;;;19.73;13.82;;;;;;;7.76;63.94;95186.88;5026569;28;20084;-81
2023/04/09 05:01:05;;;;;;;20.92;13.50;;;;;;;7.84;64.00;95185.56;5027047;28;20030;-82
2023/04/09 05:03:31;;;;;;;20.60;14.13;;;;;;;7.91;63.80;95190.16;5026521;28;20056;-81
2023/04/09 05:05:56;;;;;;;18.58;13.82;;;;;;;7.85;63.52;95184.38;5039978;28;20021;-81
2023/04/09 05:08:22;;;;;;;18.02;13.35;;;;;;;7.72;63.73;95188.88;5028731;28;20028;-81
2023/04/09 05:10:47;;;;;;;20.42;14.57;;;;;;;7.78;63.58;95189.94;5027966;28;20060;-82
2023/04/09 05:13:12;;;;;;;20.27;14.15;;;;;;;7.81;63.89;95182.91;5028271;28;20027;-80
2023/04/09 05:15:40;;;;;;;21.17;14.85;;;;;;;7.95;63.97;95196.38;5009967;28;20029;-81
2023/04/09 05:18:06;;;;;;;21.33;15.98;;;;;;;8.01;63.76;95193.94;5028082;28;20029;-81
2023/04/09 05:20:32;;;;;;;23.70;15.88;;;;;;;8.06;63.51;95191.50;5026650;28;20139;-81
2023/04/09 05:22:58;;;;;;;24.52;15.63;;;;;;;7.98;63.58;95188.13;5026716;28;20021;-81
2023/04/09 05:25:23;;;;;;;23.05;15.60;;;;;;;7.87;63.94;95192.19;5026885;28;20022;-81
2023/04/09 05:27:48;;;;;;;21.75;15.10;;;;;;;7.94;63.61;95192.09;5027402;28;20399;-83
2023/04/09 05:30:14;;;;;;;22.40;15.27;;;;;;;7.83;63.95;95186.00;5027471;28;20041;-81
2023/04/09 05:32:39;;;;;;;23.70;16.25;;;;;;;7.94;64.20;95194.81;5027741;28;20523;-81
2023/04/09 05:35:05;;;;;;;27.20;16.42;;;;;;;7.99;64.30;95194.34;5027901;28;20035;-80
2023/04/09 05:37:31;;;;;;;23.17;15.38;;;;;;;8.01;64.01;95185.72;5027443;28;20026;-82
2023/04/09 05:39:56;;;;;;;24.92;15.27;;;;;;;7.93;63.73;95183.09;5026197;28;20464;-83
2023/04/09 05:42:21;;;;;;;23.50;16.45;;;;;;;8.05;63.64;95194.66;5027861;28;20109;-81
2023/04/09 05:44:47;;;;;;;24.10;15.88;;;;;;;8.14;63.34;95195.72;5026043;28;20029;-84
2023/04/09 05:47:12;;;;;;;22.98;14.77;;;;;;;8.10;62.69;95199.69;5026389;28;20037;-82
2023/04/09 05:49:37;;;;;;;21.40;14.43;;;;;;;8.03;62.82;95191.56;5025833;28;20554;-80
2023/04/09 05:52:03;;;;;;;21.70;14.32;;;;;;;7.86;63.20;95209.81;5027343;28;20102;-82
2023/04/09 05:54:30;;;;;;;22.92;14.70;;;;;;;8.04;62.98;95209.56;5009302;28;20033;-81
2023/04/09 05:56:55;;;;;;;21.13;13.82;;;;;;;7.77;63.41;95198.59;5025035;28;20018;-83
2023/04/09 05:59:21;;;;;;;22.05;14.00;;;;;;;7.63;63.69;95197.59;5028771;28;20191;-82
2023/04/09 06:01:47;;;;;;;21.35;13.35;;;;;;;7.73;63.51;95196.66;5037381;28;20037;-83
2023/04/09 06:04:12;;;;;;;23.25;14.75;;;;;;;7.98;63.20;95198.28;5027560;28;20091;-83
2023/04/09 06:06:37;;;;;;;19.40;13.05;;;;;;;8.14;62.37;95200.38;5025737;28;20029;-82
2023/04/09 06:09:03;;;;;;;18.38;13.20;;;;;;;8.21;62.22;95195.59;5027017;28;20025;-80
2023/04/09 06:11:29;;;;;;;20.75;13.35;;;;;;;8.40;61.68;95205.09;5026908;28;20030;-82
2023/04/09 06:13:55;;;;;;;17.70;12.45;;;;;;;8.45;61.21;95198.38;5025783;28;20029;-81
2023/04/09 06:16:20;;;;;;;18.40;11.88;;;;;;;8.54;60.66;95200.56;5025902;28;20476;-80
2023/04/09 06:18:48;;;;;;;19.48;12.10;;;;;;;8.41;61.55;95197.66;5026777;28;20025;-80
2023/04/09 06:21:14;;;;;;;17.05;11.23;;;;;;;8.64;60.64;95200.38;5027137;28;20419;-81
2023/04/09 06:23:39;;;;;;;17.45;11.98;;;;;;;8.49;60.67;95199.09;5025735;28;20018;-81
2023/04/09 06:26:05;;;;;;;22.92;13.70;;;;;;;8.78;60.95;95210.34;5025463;28;20033;-81
2023/04/09 06:28:31;;;;;;;21.33;13.20;;;;;;;9.08;60.89;95206.66;5026653;28;20030;-81
2023/04/09 06:30:57;;;;;;;18.30;12.45;;;;;;;9.22;60.75;95205.59;5025077;28;20124;-81
2023/04/09 06:33:22;;;;;;;19.67;12.77;;;;;;;9.29;59.62;95205.50;5025318;28;20018;-81
2023/04/09 06:35:48;;;;;;;18.95;12.55;;;;;;;9.17;58.97;95204.13;5026515;28;20056;-81
2023/04/09 06:38:14;;;;;;;18.70;12.27;;;;;;;9.44;59.09;95203.22;5026506;28;20099;-80
2023/04/09 06:40:40;;;;;;;16.45;11.77;;;;;;;9.57;58.88;95207.63;5025505;28;20112;-81
2023/04/09 06:43:05;;;;;;;20.45;12.38;;;;;;;9.75;58.29;95209.28;5025132;28;20399;-81
2023/04/09 06:45:32;;;;;;;14.77;11.52;;;;;;;9.91;57.65;95211.25;5025014;28;20514;-82
2023/04/09 06:47:58;;;;;;;18.85;12.32;;;;;;;10.03;57.21;95216.84;5026161;28;20025;-81
2023/04/09 06:50:23;;;;;;;15.88;11.18;;;;;;;10.13;56.91;95214.31;5026111;28;20489;-80
2023/04/09 06:52:50;;;;;;;17.38;12.02;;;;;;;10.26;56.57;95213.22;5026161;28;20105;-80
2023/04/09 06:55:15;;;;;;;20.80;12.77;;;;;;;10.29;56.20;95215.13;5029203;28;20025;-81
2023/04/09 06:57:41;;;;;;;15.95;11.90;;;;;;;10.48;55.93;95215.47;5031912;28;20502;-81
2023/04/09 07:00:07;;;;;;;14.55;10.85;;;;;;;10.41;54.43;95210.94;5026379;28;20472;-80
2023/04/09 07:02:33;;;;;;;13.95;11.95;;;;;;;10.33;54.20;95217.81;5025980;28;20075;-81
2023/04/09 07:04:58;;;;;;;16.35;12.07;;;;;;;10.35;54.08;95212.66;5008367;28;20396;-80
2023/04/09 07:07:24;;;;;;;16.92;11.10;;;;;;;10.35;54.00;95216.16;5025835;28;20492;-81
2023/04/09 07:09:51;;;;;;;16.88;11.60;;;;;;;10.43;54.71;95219.50;5026006;28;20421;-81
2023/04/09 07:12:36;;;;;;;14.75;10.30;;;;;;;10.46;54.14;95220.66;5025504;28;20032;-82
2023/04/09 07:15:03;;;;;;;17.73;11.30;;;;;;;10.40;53.94;95222.38;5024362;28;20029;-81
2023/04/09 07:17:30;;;;;;;13.55;10.35;;;;;;;10.06;54.51;95221.50;5024647;28;20033;-81
2023/04/09 07:19:56;;;;;;;13.45;10.52;;;;;;;10.14;54.99;95218.59;5024550;28;20037;-81
2023/04/09 07:22:22;;;;;;;14.90;11.25;;;;;;;10.18;55.24;95211.84;5024737;28;20047;-81
2023/04/09 07:24:52;;;;;;;14.15;11.10;;;;;;;10.35;54.46;95218.16;5024505;28;20116;-82
2023/04/09 07:27:20;;;;;;;13.55;10.73;;;;;;;10.34;53.99;95225.63;5023813;28;20032;-80
2023/04/09 07:29:45;;;;;;;12.38;9.35;;;;;;;10.21;52.95;95213.75;5025695;28;20432;-80
2023/04/09 07:32:11;;;;;;;15.23;10.95;;;;;;;10.16;53.56;95217.00;5025459;28;20032;-79
2023/04/09 07:34:36;;;;;;;15.70;11.18;;;;;;;10.14;54.57;95218.59;5025668;28;20028;-79
2023/04/09 07:37:02;;;;;;;15.25;11.15;;;;;;;10.16;54.60;95219.75;5025367;28;20034;-81
2023/04/09 07:39:27;;;;;;;15.18;10.60;;;;;;;10.28;54.62;95215.56;5023754;28;20029;-81
2023/04/09 07:41:53;;;;;;;14.35;9.63;;;;;;;10.36;54.05;95225.19;5023888;28;20029;-80
2023/04/09 07:44:19;;;;;;;15.60;10.63;;;;;;;10.49;53.03;95228.78;5025442;28;20079;-81
2023/04/09 07:46:44;;;;;;;13.65;9.82;;;;;;;10.56;51.40;95222.38;5025361;28;20025;-81
2023/04/09 07:49:10;;;;;;;13.90;9.52;;;;;;;10.40;51.13;95220.38;5025373;28;20140;-80
2023/04/09 07:51:35;;;;;;;12.85;9.23;;;;;;;10.40;51.16;95225.13;5035029;28;20025;-79
2023/04/09 07:54:00;;;;;;;14.02;9.68;;;;;;;10.59;51.11;95227.00;5025715;28;20167;-79
2023/04/09 07:56:26;;;;;;;13.35;9.38;;;;;;;10.67;50.72;95222.88;5023884;28;20395;-82
2023/04/09 07:58:51;;;;;;;16.50;10.90;;;;;;;10.79;51.35;95222.19;5024922;28;20049;-81
2023/04/09 08:01:17;;;;;;;14.45;10.77;;;;;;;10.93;50.68;95231.28;5025392;28;20028;-81
2023/04/09 08:03:42;;;;;;;14.27;10.05;;;;;;;11.09;50.11;95225.75;5023613;28;20033;-81
2023/04/09 08:06:08;;;;;;;13.60;9.85;;;;;;;11.16;49.75;95228.31;5023720;28;20021;-82
2023/04/09 08:08:33;;;;;;;14.45;10.32;;;;;;;11.38;49.21;95229.28;5025442;28;20018;-82
2023/04/09 08:10:59;;;;;;;18.13;11.27;;;;;;;11.65;48.96;95226.19;5025120;28;20398;-81
2023/04/09 08:13:24;;;;;;;10.60;8.05;;;;;;;11.49;47.14;95231.75;5024785;28;20018;-82
2023/04/09 08:15:50;;;;;;;11.70;8.52;;;;;;;11.69;46.96;95243.34;5024877;28;20065;-82
2023/04/09 08:18:15;;;;;;;9.07;7.38;;;;;;;11.72;46.64;95227.97;5023597;28;20053;-81
2023/04/09 08:20:44;;;;;;;12.95;9.07;;;;;;;11.67;47.54;95220.22;5027578;28;20020;-82
2023/04/09 08:23:10;;;;;;;12.77;9.00;;;;;;;11.83;46.57;95233.97;5031103;28;20033;-80
2023/04/09 08:25:36;;;;;;;11.93;8.45;;;;;;;11.60;46.43;95232.22;5029626;28;20036;-81
2023/04/09 08:28:01;;;;;;;13.80;9.65;;;;;;;11.99;47.84;95235.09;5030908;28;20021;-77
2023/04/09 08:30:27;;;;;;;16.67;11.15;;;;;;;12.38;50.07;95234.66;5029503;28;20033;-79
2023/04/09 08:32:52;;;;;;;13.20;9.68;;;;;;;12.56;46.47;95231.38;5030017;28;20056;-78
2023/04/09 08:35:18;;;;;;;13.07;8.68;;;;;;;12.69;45.86;95232.13;5030896;28;20029;-76
2023/04/09 08:37:43;;;;;;;11.43;9.25;;;;;;;12.75;46.56;95235.09;5031240;28;20032;-84
2023/04/09 08:40:10;;;;;;;12.80;10.25;;;;;;;12.81;45.76;95224.28;5032162;28;20546;-81
2023/04/09 08:42:39;;;;;;;11.73;8.63;;;;;;;12.30;45.79;95230.59;5014461;28;20029;-85
2023/04/09 08:45:04;;;;;;;11.10;8.25;;;;;;;12.43;44.94;95230.59;5033370;28;20036;-90
2023/04/09 08:47:31;;;;;;;10.80;8.25;;;;;;;11.99;45.72;95226.84;5044174;28;20025;-83
2023/04/09 08:49:56;;;;;;;10.73;8.00;;;;;;;11.43;46.90;95228.75;5030393;28;20033;-78
2023/04/09 08:52:31;;;;;;;10.45;8.35;;;;;;;11.23;47.75;95236.38;5031001;28;20029;-85
2023/04/09 08:54:56;;;;;;;10.70;7.93;;;;;;;11.67;47.45;95234.78;5031361;28;20025;-80
2023/04/09 08:57:22;;;;;;;11.65;8.85;;;;;;;12.13;46.66;95215.38;5030802;28;20055;-80
2023/04/09 08:59:47;;;;;;;13.20;8.95;;;;;;;12.63;46.17;95222.09;5031058;28;20032;-87
2023/04/09 09:02:13;;;;;;;11.25;8.43;;;;;;;13.16;44.59;95216.78;5029559;28;20032;-81
2023/04/09 09:04:49;;;;;;;10.95;8.57;;;;;;;13.17;43.79;95221.84;5029258;28;20057;-90
2023/04/09 09:07:15;;;;;;;11.23;8.07;;;;;;;12.82;44.08;95223.06;5029743;28;20155;-85
2023/04/09 09:09:56;;;;;;;12.85;8.85;;;;;;;13.08;44.48;95212.75;5029085;28;20049;-83
2023/04/09 09:12:35;;;;;;;12.73;9.93;;;;;;;13.73;44.79;95226.63;5030497;28;20040;-84
2023/04/09 09:15:00;;;;;;;10.43;8.20;;;;;;;13.89;42.65;95214.59;5030779;28;20033;-80
2023/04/09 09:17:26;;;;;;;11.07;8.10;;;;;;;13.57;42.68;95218.53;5030384;28;20391;-81
2023/04/09 09:19:51;;;;;;;11.05;8.43;;;;;;;13.61;43.12;95212.88;5030303;28;20029;-77
2023/04/09 09:22:17;;;;;;;11.55;8.48;;;;;;;13.13;43.68;95210.19;5029563;28;20045;-76
2023/04/09 09:24:50;;;;;;;10.82;8.95;;;;;;;13.11;44.27;95211.84;5030598;28;20033;-77
2023/04/09 09:27:41;;;;;;;12.07;9.20;;;;;;;13.54;44.50;95211.91;5032555;28;20044;-83
2023/04/09 09:30:09;;;;;;;12.35;8.90;;;;;;;13.81;42.98;95216.84;5030714;28;20109;-75
2023/04/09 09:32:35;;;;;;;9.73;8.25;;;;;;;13.99;42.11;95207.91;5025314;28;20060;-76
2023/04/09 09:35:05;;;;;;;10.57;8.40;;;;;;;14.27;41.65;95202.47;5027062;28;20029;-75
2023/04/09 09:37:31;;;;;;;11.85;8.85;;;;;;;14.88;42.10;95207.16;5027253;28;20028;-74
2023/04/09 09:39:57;;;;;;;11.85;8.80;;;;;;;15.00;40.33;95197.19;5025883;28;20431;-74
2023/04/09 09:42:23;;;;;;;12.00;9.02;;;;;;;15.38;41.30;95207.06;5030651;28;20021;-74
2023/04/09 09:44:49;;;;;;;11.63;9.43;;;;;;;15.21;39.82;95189.22;5027509;28;20025;-77
2023/04/09 09:47:17;;;;;;;11.93;9.02;;;;;;;15.54;40.43;95192.91;5027156;28;20052;-77
2023/04/09 09:49:42;;;;;;;10.82;9.18;;;;;;;15.97;39.75;95196.56;5025765;28;20030;-77
2023/04/09 09:52:09;;;;;;;14.80;8.93;;;;;;;16.35;38.92;95192.44;5009389;28;20105;-77
2023/04/09 09:54:41;;;;;;;12.32;8.98;;;;;;;16.69;37.79;95189.19;5026752;28;20029;-75
2023/04/09 09:57:13;;;;;;;10.77;8.77;;;;;;;16.84;36.91;95191.28;5026803;28;20160;-77
2023/04/09 10:00:02;;;;;;;13.07;8.40;;;;;;;16.53;36.85;95186.81;5025585;28;20102;-77
2023/04/09 10:02:32;;;;;;;9.27;7.93;;;;;;;16.33;37.14;95183.81;5025199;28;20522;-76
2023/04/09 10:05:00;;;;;;;9.63;8.23;;;;;;;16.48;37.57;95181.13;5024905;28;20037;-77
2023/04/09 10:07:25;;;;;;;9.13;8.13;;;;;;;15.76;37.41;95189.97;5026651;28;20037;-77
2023/04/09 10:09:52;;;;;;;9.02;7.57;;;;;;;14.53;38.97;95176.19;5024697;28;20092;-77
2023/04/09 10:12:22;;;;;;;7.80;6.93;;;;;;;14.05;40.21;95183.97;5025284;28;20057;-78
2023/04/09 10:14:48;;;;;;;10.93;8.13;;;;;;;14.19;40.02;95176.34;5024802;28;20497;-76
2023/04/09 10:17:13;;;;;;;10.02;8.02;;;;;;;14.76;39.47;95179.63;5025141;28;20468;-77
2023/04/09 10:19:43;;;;;;;8.48;6.60;;;;;;;14.77;38.79;95178.41;5026198;28;20036;-76
2023/04/09 10:22:16;;;;;;;8.18;6.80;;;;;;;14.40;39.17;95174.75;5022271;28;20025;-76
2023/04/09 10:24:41;;;;;;;8.90;6.75;;;;;;;14.29;39.17;95178.69;5006186;28;20026;-77
2023/04/09 10:27:11;;;;;;;8.73;6.90;;;;;;;14.36;39.12;95177.66;5005166;28;20041;-86
2023/04/09 10:29:45;;;;;;;8.95;7.18;;;;;;;14.56;38.62;95166.19;5037970;28;20026;-79
2023/04/09 10:32:10;;;;;;;8.35;6.65;;;;;;;14.39;38.71;95179.47;5005358;28;20033;-79
2023/04/09 10:34:41;;;;;;;7.85;6.97;;;;;;;14.73;38.40;95173.00;5005650;28;20030;-76
2023/04/09 10:37:08;;;;;;;8.25;7.03;;;;;;;15.04;38.63;95174.91;5045238;28;20018;-80
2023/04/09 10:39:38;;;;;;;8.70;6.88;;;;;;;15.29;37.12;95169.06;5007091;28;20030;-85
2023/04/09 10:42:07;;;;;;;7.18;6.47;;;;;;;14.84;37.46;95167.78;5038052;28;20034;-80
2023/04/09 10:44:34;;;;;;;8.35;6.72;;;;;;;14.86;37.54;95162.59;5005595;28;20033;-82
2023/04/09 10:47:02;;;;;;;8.05;6.47;;;;;;;15.07;36.87;95155.34;5004902;28;20127;-85
2023/04/09 10:49:35;;;;;;;6.97;6.03;;;;;;;14.21;38.45;95155.31;5005543;28;20029;-84
2023/04/09 10:52:03;;;;;;;10.00;7.07;;;;;;;15.04;37.66;95148.00;5005437;28;20049;-85
2023/04/09 10:54:31;;;;;;;7.53;6.75;;;;;;;15.39;36.86;95142.91;5007076;28;20527;-85
2023/04/09 10:57:06;;;;;;;10.02;6.90;;;;;;;15.88;36.32;95143.91;5007171;28;20022;-80
2023/04/09 10:59:34;;;;;;;8.43;7.03;;;;;;;16.71;34.50;95139.56;5021445;28;20042;-83
2023/04/09 11:02:00;;;;;;;6.95;6.22;;;;;;;17.46;32.87;95143.31;4988467;28;20167;-79
2023/04/09 11:04:35;;;;;;;7.10;6.15;;;;;;;17.49;33.41;95132.03;5004582;28;20502;-86
2023/04/09 11:07:03;;;;;;;6.78;6.07;;;;;;;17.34;33.37;95141.56;5004844;28;20025;-80
2023/04/09 11:09:28;;;;;;;7.20;5.60;;;;;;;17.21;33.23;95119.63;5006729;28;20068;-80
2023/04/09 11:11:56;;;;;;;6.68;6.00;;;;;;;16.39;34.41;95120.88;4990446;28;20131;-83
2023/04/09 11:14:22;;;;;;;7.05;6.35;;;;;;;16.13;35.03;95123.34;5005450;28;20126;-82
2023/04/09 11:16:48;;;;;;;7.00;6.20;;;;;;;15.98;35.12;95123.22;5005792;28;20030;-79
2023/04/09 11:19:13;;;;;;;7.45;6.47;;;;;;;16.37;34.87;95126.16;5004287;28;20392;-79
2023/04/09 11:21:45;;;;;;;7.28;6.55;;;;;;;16.72;34.10;95132.75;5004770;28;20408;-85
2023/04/09 11:24:13;;;;;;;8.93;6.38;;;;;;;15.74;34.90;95127.94;5005942;28;20567;-82
2023/04/09 11:26:39;;;;;;;6.40;5.50;;;;;;;15.17;36.14;95131.22;5037263;28;20030;-85